Pagrindinis puslapis
METAR-TAF:

METAR-TAF

Oro uostai :

Vladivostokas, Rusija

platuma: 43-07N, ilguma: 131-56E, Aukštis: 184 m

Dabartinis oras

Ataskaita buvo paskelbta 32 minutes, ne 02:30 UTC
Vėjas 4 kt iš Vakarų/Pietvakarių
Temperatūra -7°C
Drėgmė 57%
Slėgis 1017 hPa
Matomumas 10 km arba daugiau

METAR: UHWW 200230Z 25002MPS 9999 NSC M07/M14 Q1017 R25L/0///70 NOSIG RMK QFE761

Laikas: 13:02 (03:02 UTC)

Prognozė

Ataskaita buvo paskelbta 1 valandą ir 2 minutes, ne 02:00 UTC
Prognozė galioja nuo 20 metu 03 UTC su 21 metu 03 UTC
Vėjas 6 kt iš Vakarų/Pietvakarių
Matomumas: 5000 m
Su prošvaistėmis ne aukštis 3000 ft
dūmai
Nuo 20 metu 0500 UTC
Vėjas 6 kt iš Šiaurės/Šiaurės Vakarų
Matomumas 10 km arba daugiau
Su prošvaistėmis ne aukštis 2000 ft, Liūtiniai kamuoliniai debesys.
Laikinai
nuo 20 metu 05 UTC su 20 metu 12 UTC
Vėjas 17 kt iš Šiaurės
Matomumas: 3100 m
Su prošvaistėmis ne aukštis 1700 ft, Liūtiniai kamuoliniai debesys.
sniegas

TAF: UHWW 200200Z 2003/2103 24003MPS 5000 FU BKN030 FM200500 34003MPS 9999 BKN020CB TEMPO 2005/2012 35009MPS 3100 -SHSN BKN017CB

Orai ataskaitas ir orų prognozės (METAR, TAF).

turimą stotys yra geltonos ir raudonos taškus žemėlapyje.

Perkelti pele per norėdami pamatyti stoties vardą.

Tada spustelėkite, norėdami matyti oro stebėjimo ir prognozės.

Norėdami pakeisti žemėlapį: spustelėkite ant žalios mygtukų su juodo kryžiaus žemyn,; žalią mygtuką su brūkšneliu, jei norite nutolinti; arba žalių rodyklių gretimoms žemėlapius.


METAR-TAF: